sensor_id;sensor_type;location;lat;lon;timestamp;P1;durP1;ratioP1;P2;durP2;ratioP2
1751;SDS011;873;47.696;8.068;2023-05-02T00:01:06;2.50;;;2.00;;
1751;SDS011;873;47.696;8.068;2023-05-02T00:03:32;2.43;;;1.83;;
1751;SDS011;873;47.696;8.068;2023-05-02T00:05:58;2.40;;;2.20;;
1751;SDS011;873;47.696;8.068;2023-05-02T00:08:25;2.53;;;1.90;;
1751;SDS011;873;47.696;8.068;2023-05-02T00:10:50;4.43;;;2.27;;
1751;SDS011;873;47.696;8.068;2023-05-02T00:13:16;2.77;;;2.00;;
1751;SDS011;873;47.696;8.068;2023-05-02T00:15:41;2.83;;;1.60;;
1751;SDS011;873;47.696;8.068;2023-05-02T00:18:06;2.50;;;1.87;;
1751;SDS011;873;47.696;8.068;2023-05-02T00:20:32;2.27;;;1.83;;
1751;SDS011;873;47.696;8.068;2023-05-02T00:22:57;2.53;;;1.60;;
1751;SDS011;873;47.696;8.068;2023-05-02T00:25:23;1.80;;;1.50;;
1751;SDS011;873;47.696;8.068;2023-05-02T00:27:48;2.40;;;2.10;;
1751;SDS011;873;47.696;8.068;2023-05-02T00:30:15;5.00;;;1.60;;
1751;SDS011;873;47.696;8.068;2023-05-02T00:32:42;2.07;;;1.87;;
1751;SDS011;873;47.696;8.068;2023-05-02T00:35:08;2.50;;;2.00;;
1751;SDS011;873;47.696;8.068;2023-05-02T00:37:34;2.87;;;2.23;;
1751;SDS011;873;47.696;8.068;2023-05-02T00:40:00;2.40;;;2.20;;
1751;SDS011;873;47.696;8.068;2023-05-02T00:42:27;2.67;;;2.07;;
1751;SDS011;873;47.696;8.068;2023-05-02T00:44:57;3.47;;;2.30;;
1751;SDS011;873;47.696;8.068;2023-05-02T00:47:22;2.20;;;2.00;;
1751;SDS011;873;47.696;8.068;2023-05-02T00:49:48;1.70;;;1.60;;
1751;SDS011;873;47.696;8.068;2023-05-02T00:52:14;2.30;;;2.10;;
1751;SDS011;873;47.696;8.068;2023-05-02T00:54:40;2.43;;;2.23;;
1751;SDS011;873;47.696;8.068;2023-05-02T00:57:05;2.57;;;2.03;;
1751;SDS011;873;47.696;8.068;2023-05-02T00:59:31;3.03;;;2.70;;
1751;SDS011;873;47.696;8.068;2023-05-02T01:07:34;2.43;;;1.87;;
1751;SDS011;873;47.696;8.068;2023-05-02T01:13:00;1.83;;;1.53;;
1751;SDS011;873;47.696;8.068;2023-05-02T01:15:28;2.40;;;1.73;;
1751;SDS011;873;47.696;8.068;2023-05-02T01:17:55;3.37;;;2.23;;
1751;SDS011;873;47.696;8.068;2023-05-02T01:20:22;2.20;;;2.00;;
1751;SDS011;873;47.696;8.068;2023-05-02T01:22:48;2.60;;;2.40;;
1751;SDS011;873;47.696;8.068;2023-05-02T01:28:01;2.87;;;2.23;;
1751;SDS011;873;47.696;8.068;2023-05-02T01:30:35;2.27;;;1.80;;
1751;SDS011;873;47.696;8.068;2023-05-02T01:33:03;2.20;;;2.00;;
1751;SDS011;873;47.696;8.068;2023-05-02T01:35:30;2.70;;;1.80;;
1751;SDS011;873;47.696;8.068;2023-05-02T01:37:57;2.07;;;1.87;;
1751;SDS011;873;47.696;8.068;2023-05-02T01:40:23;2.00;;;1.80;;
1751;SDS011;873;47.696;8.068;2023-05-02T01:42:50;2.63;;;1.83;;
1751;SDS011;873;47.696;8.068;2023-05-02T01:45:17;2.23;;;2.03;;
1751;SDS011;873;47.696;8.068;2023-05-02T01:47:43;1.87;;;1.60;;
1751;SDS011;873;47.696;8.068;2023-05-02T01:50:11;2.13;;;1.93;;
1751;SDS011;873;47.696;8.068;2023-05-02T01:52:40;2.17;;;1.97;;
1751;SDS011;873;47.696;8.068;2023-05-02T01:55:06;2.87;;;2.23;;
1751;SDS011;873;47.696;8.068;2023-05-02T01:57:34;3.13;;;2.83;;
1751;SDS011;873;47.696;8.068;2023-05-02T02:00:01;6.80;;;2.07;;
1751;SDS011;873;47.696;8.068;2023-05-02T02:02:28;2.90;;;2.20;;
1751;SDS011;873;47.696;8.068;2023-05-02T02:04:54;2.83;;;1.80;;
1751;SDS011;873;47.696;8.068;2023-05-02T02:07:21;2.37;;;2.07;;
1751;SDS011;873;47.696;8.068;2023-05-02T02:09:46;2.97;;;2.50;;
1751;SDS011;873;47.696;8.068;2023-05-02T02:12:15;2.83;;;2.07;;
1751;SDS011;873;47.696;8.068;2023-05-02T02:14:55;2.23;;;2.03;;
1751;SDS011;873;47.696;8.068;2023-05-02T02:17:23;3.20;;;2.27;;
1751;SDS011;873;47.696;8.068;2023-05-02T02:19:52;3.13;;;2.53;;
1751;SDS011;873;47.696;8.068;2023-05-02T02:22:18;2.63;;;2.10;;
1751;SDS011;873;47.696;8.068;2023-05-02T02:24:44;2.33;;;2.13;;
1751;SDS011;873;47.696;8.068;2023-05-02T02:27:10;2.90;;;2.60;;
1751;SDS011;873;47.696;8.068;2023-05-02T02:29:36;2.57;;;2.03;;
1751;SDS011;873;47.696;8.068;2023-05-02T02:32:01;2.37;;;2.17;;
1751;SDS011;873;47.696;8.068;2023-05-02T02:34:27;2.73;;;2.47;;
1751;SDS011;873;47.696;8.068;2023-05-02T02:36:57;4.40;;;2.57;;
1751;SDS011;873;47.696;8.068;2023-05-02T02:56:15;2.57;;;2.10;;
1751;SDS011;873;47.696;8.068;2023-05-02T03:01:21;3.57;;;2.63;;
1751;SDS011;873;47.696;8.068;2023-05-02T03:03:49;3.33;;;2.43;;
1751;SDS011;873;47.696;8.068;2023-05-02T03:06:16;3.03;;;2.17;;
1751;SDS011;873;47.696;8.068;2023-05-02T03:08:42;4.23;;;3.17;;
1751;SDS011;873;47.696;8.068;2023-05-02T03:11:08;4.50;;;4.07;;
1751;SDS011;873;47.696;8.068;2023-05-02T03:13:34;3.87;;;2.50;;
1751;SDS011;873;47.696;8.068;2023-05-02T03:18:35;3.40;;;2.58;;
1751;SDS011;873;47.696;8.068;2023-05-02T03:21:01;3.10;;;2.57;;
1751;SDS011;873;47.696;8.068;2023-05-02T03:23:27;2.60;;;2.40;;
1751;SDS011;873;47.696;8.068;2023-05-02T03:25:52;4.73;;;1.90;;
1751;SDS011;873;47.696;8.068;2023-05-02T03:28:18;3.00;;;2.43;;
1751;SDS011;873;47.696;8.068;2023-05-02T03:30:43;2.70;;;2.07;;
1751;SDS011;873;47.696;8.068;2023-05-02T03:33:08;2.10;;;1.90;;
1751;SDS011;873;47.696;8.068;2023-05-02T03:35:34;1.83;;;1.67;;
1751;SDS011;873;47.696;8.068;2023-05-02T03:37:59;2.67;;;1.93;;
1751;SDS011;873;47.696;8.068;2023-05-02T03:40:26;2.10;;;1.90;;
1751;SDS011;873;47.696;8.068;2023-05-02T03:42:51;2.73;;;2.10;;
1751;SDS011;873;47.696;8.068;2023-05-02T03:45:17;1.60;;;1.43;;
1751;SDS011;873;47.696;8.068;2023-05-02T03:47:42;3.93;;;2.17;;
1751;SDS011;873;47.696;8.068;2023-05-02T03:50:08;1.97;;;1.87;;
1751;SDS011;873;47.696;8.068;2023-05-02T03:52:34;2.30;;;1.60;;
1751;SDS011;873;47.696;8.068;2023-05-02T03:55:00;1.50;;;1.40;;
1751;SDS011;873;47.696;8.068;2023-05-02T03:57:29;2.10;;;1.83;;
1751;SDS011;873;47.696;8.068;2023-05-02T03:59:55;1.57;;;1.47;;
1751;SDS011;873;47.696;8.068;2023-05-02T04:02:20;3.83;;;2.23;;
1751;SDS011;873;47.696;8.068;2023-05-02T04:04:46;2.37;;;1.90;;
1751;SDS011;873;47.696;8.068;2023-05-02T04:07:11;2.40;;;2.20;;
1751;SDS011;873;47.696;8.068;2023-05-02T04:09:42;2.30;;;2.10;;
1751;SDS011;873;47.696;8.068;2023-05-02T04:12:08;6.20;;;1.90;;
1751;SDS011;873;47.696;8.068;2023-05-02T04:14:33;2.70;;;1.93;;
1751;SDS011;873;47.696;8.068;2023-05-02T04:16:59;3.67;;;2.77;;
1751;SDS011;873;47.696;8.068;2023-05-02T04:19:24;3.60;;;2.50;;
1751;SDS011;873;47.696;8.068;2023-05-02T04:21:50;2.77;;;2.43;;
1751;SDS011;873;47.696;8.068;2023-05-02T04:24:15;2.47;;;2.23;;
1751;SDS011;873;47.696;8.068;2023-05-02T04:26:41;3.30;;;2.60;;
1751;SDS011;873;47.696;8.068;2023-05-02T04:29:06;2.07;;;1.67;;
1751;SDS011;873;47.696;8.068;2023-05-02T04:31:32;3.10;;;2.47;;
1751;SDS011;873;47.696;8.068;2023-05-02T04:33:57;2.80;;;1.83;;
1751;SDS011;873;47.696;8.068;2023-05-02T04:36:23;3.13;;;2.70;;
1751;SDS011;873;47.696;8.068;2023-05-02T04:38:50;4.20;;;3.20;;
1751;SDS011;873;47.696;8.068;2023-05-02T04:41:15;4.43;;;2.93;;
1751;SDS011;873;47.696;8.068;2023-05-02T04:43:41;2.83;;;2.20;;
1751;SDS011;873;47.696;8.068;2023-05-02T04:46:07;2.47;;;1.97;;
1751;SDS011;873;47.696;8.068;2023-05-02T04:48:32;2.90;;;2.47;;
1751;SDS011;873;47.696;8.068;2023-05-02T04:50:58;3.13;;;2.53;;
1751;SDS011;873;47.696;8.068;2023-05-02T04:53:23;3.27;;;2.67;;
1751;SDS011;873;47.696;8.068;2023-05-02T04:55:49;5.17;;;2.87;;
1751;SDS011;873;47.696;8.068;2023-05-02T04:58:15;3.90;;;2.63;;
1751;SDS011;873;47.696;8.068;2023-05-02T05:00:40;3.20;;;2.30;;
1751;SDS011;873;47.696;8.068;2023-05-02T05:03:05;4.27;;;3.83;;
1751;SDS011;873;47.696;8.068;2023-05-02T05:05:31;5.00;;;3.53;;
1751;SDS011;873;47.696;8.068;2023-05-02T05:07:57;4.10;;;2.90;;
1751;SDS011;873;47.696;8.068;2023-05-02T05:10:22;2.70;;;2.13;;
1751;SDS011;873;47.696;8.068;2023-05-02T05:12:48;3.40;;;2.70;;
1751;SDS011;873;47.696;8.068;2023-05-02T05:15:14;4.03;;;2.90;;
1751;SDS011;873;47.696;8.068;2023-05-02T05:17:40;3.87;;;2.73;;
1751;SDS011;873;47.696;8.068;2023-05-02T05:20:06;3.47;;;2.90;;
1751;SDS011;873;47.696;8.068;2023-05-02T05:22:41;2.47;;;2.27;;
1751;SDS011;873;47.696;8.068;2023-05-02T05:25:08;3.70;;;2.27;;
1751;SDS011;873;47.696;8.068;2023-05-02T05:27:34;3.17;;;2.80;;
1751;SDS011;873;47.696;8.068;2023-05-02T05:30:00;4.77;;;2.73;;
1751;SDS011;873;47.696;8.068;2023-05-02T05:32:27;5.97;;;3.07;;
1751;SDS011;873;47.696;8.068;2023-05-02T05:34:53;3.67;;;2.80;;
1751;SDS011;873;47.696;8.068;2023-05-02T05:37:19;2.73;;;2.23;;
1751;SDS011;873;47.696;8.068;2023-05-02T05:39:45;2.93;;;2.37;;
1751;SDS011;873;47.696;8.068;2023-05-02T05:42:11;3.47;;;2.60;;
1751;SDS011;873;47.696;8.068;2023-05-02T05:44:37;2.37;;;2.17;;
1751;SDS011;873;47.696;8.068;2023-05-02T05:47:03;3.47;;;2.40;;
1751;SDS011;873;47.696;8.068;2023-05-02T05:49:28;2.73;;;2.23;;
1751;SDS011;873;47.696;8.068;2023-05-02T05:51:55;3.00;;;2.37;;
1751;SDS011;873;47.696;8.068;2023-05-02T05:54:20;2.80;;;2.30;;
1751;SDS011;873;47.696;8.068;2023-05-02T05:56:46;3.33;;;2.83;;
1751;SDS011;873;47.696;8.068;2023-05-02T05:59:11;2.77;;;2.53;;
1751;SDS011;873;47.696;8.068;2023-05-02T06:01:37;4.37;;;2.70;;
1751;SDS011;873;47.696;8.068;2023-05-02T06:04:03;3.40;;;3.10;;
1751;SDS011;873;47.696;8.068;2023-05-02T06:06:29;3.87;;;3.00;;
1751;SDS011;873;47.696;8.068;2023-05-02T06:08:56;2.93;;;2.63;;
1751;SDS011;873;47.696;8.068;2023-05-02T06:11:22;3.60;;;3.07;;
1751;SDS011;873;47.696;8.068;2023-05-02T06:13:48;3.60;;;3.30;;
1751;SDS011;873;47.696;8.068;2023-05-02T06:16:15;3.80;;;3.03;;
1751;SDS011;873;47.696;8.068;2023-05-02T06:18:42;3.20;;;2.67;;
1751;SDS011;873;47.696;8.068;2023-05-02T06:21:08;3.10;;;2.80;;
1751;SDS011;873;47.696;8.068;2023-05-02T06:23:33;4.57;;;3.50;;
1751;SDS011;873;47.696;8.068;2023-05-02T06:25:59;4.07;;;3.23;;
1751;SDS011;873;47.696;8.068;2023-05-02T06:28:26;3.77;;;3.37;;
1751;SDS011;873;47.696;8.068;2023-05-02T06:30:58;2.80;;;2.50;;
1751;SDS011;873;47.696;8.068;2023-05-02T06:33:27;3.93;;;2.63;;
1751;SDS011;873;47.696;8.068;2023-05-02T06:35:53;3.50;;;2.83;;
1751;SDS011;873;47.696;8.068;2023-05-02T06:38:19;3.43;;;2.87;;
1751;SDS011;873;47.696;8.068;2023-05-02T06:40:44;4.43;;;3.60;;
1751;SDS011;873;47.696;8.068;2023-05-02T06:43:10;3.00;;;2.70;;
1751;SDS011;873;47.696;8.068;2023-05-02T06:45:36;4.57;;;3.50;;
1751;SDS011;873;47.696;8.068;2023-05-02T06:48:02;4.07;;;3.67;;
1751;SDS011;873;47.696;8.068;2023-05-02T06:50:27;3.53;;;3.03;;
1751;SDS011;873;47.696;8.068;2023-05-02T06:52:53;3.60;;;2.90;;
1751;SDS011;873;47.696;8.068;2023-05-02T06:55:19;3.07;;;2.70;;
1751;SDS011;873;47.696;8.068;2023-05-02T06:57:45;3.67;;;3.20;;
1751;SDS011;873;47.696;8.068;2023-05-02T07:00:11;2.63;;;2.43;;
1751;SDS011;873;47.696;8.068;2023-05-02T07:02:37;3.23;;;2.93;;
1751;SDS011;873;47.696;8.068;2023-05-02T07:05:03;2.83;;;2.53;;
1751;SDS011;873;47.696;8.068;2023-05-02T07:07:28;3.33;;;2.53;;
1751;SDS011;873;47.696;8.068;2023-05-02T07:09:54;3.17;;;2.63;;
1751;SDS011;873;47.696;8.068;2023-05-02T07:12:20;3.50;;;3.10;;
1751;SDS011;873;47.696;8.068;2023-05-02T07:14:45;3.80;;;2.67;;
1751;SDS011;873;47.696;8.068;2023-05-02T07:17:11;2.80;;;2.23;;
1751;SDS011;873;47.696;8.068;2023-05-02T07:19:36;3.53;;;2.70;;
1751;SDS011;873;47.696;8.068;2023-05-02T07:22:02;3.10;;;2.63;;
1751;SDS011;873;47.696;8.068;2023-05-02T07:24:27;2.83;;;2.57;;
1751;SDS011;873;47.696;8.068;2023-05-02T07:26:53;4.50;;;3.20;;
1751;SDS011;873;47.696;8.068;2023-05-02T07:29:19;2.87;;;2.57;;
1751;SDS011;873;47.696;8.068;2023-05-02T07:31:45;2.50;;;2.30;;
1751;SDS011;873;47.696;8.068;2023-05-02T07:34:10;3.13;;;2.37;;
1751;SDS011;873;47.696;8.068;2023-05-02T07:36:36;2.90;;;2.40;;
1751;SDS011;873;47.696;8.068;2023-05-02T07:39:01;2.70;;;2.50;;
1751;SDS011;873;47.696;8.068;2023-05-02T07:41:27;3.10;;;2.20;;
1751;SDS011;873;47.696;8.068;2023-05-02T07:43:53;2.63;;;2.33;;
1751;SDS011;873;47.696;8.068;2023-05-02T07:46:21;2.30;;;2.10;;
1751;SDS011;873;47.696;8.068;2023-05-02T07:48:47;2.63;;;1.93;;
1751;SDS011;873;47.696;8.068;2023-05-02T07:51:13;2.43;;;2.23;;
1751;SDS011;873;47.696;8.068;2023-05-02T07:53:38;2.97;;;2.40;;
1751;SDS011;873;47.696;8.068;2023-05-02T07:56:04;3.60;;;2.73;;
1751;SDS011;873;47.696;8.068;2023-05-02T07:58:31;3.60;;;2.23;;
1751;SDS011;873;47.696;8.068;2023-05-02T08:00:56;2.40;;;2.20;;
1751;SDS011;873;47.696;8.068;2023-05-02T08:03:22;2.53;;;2.33;;
1751;SDS011;873;47.696;8.068;2023-05-02T08:05:48;2.43;;;2.23;;
1751;SDS011;873;47.696;8.068;2023-05-02T08:08:13;3.17;;;2.87;;
1751;SDS011;873;47.696;8.068;2023-05-02T08:10:39;2.50;;;2.30;;
1751;SDS011;873;47.696;8.068;2023-05-02T08:13:04;3.53;;;2.60;;
1751;SDS011;873;47.696;8.068;2023-05-02T08:15:30;2.60;;;2.40;;
1751;SDS011;873;47.696;8.068;2023-05-02T08:17:55;2.50;;;2.27;;
1751;SDS011;873;47.696;8.068;2023-05-02T08:20:21;4.00;;;2.73;;
1751;SDS011;873;47.696;8.068;2023-05-02T08:22:47;2.17;;;1.93;;
1751;SDS011;873;47.696;8.068;2023-05-02T08:25:12;3.53;;;2.60;;
1751;SDS011;873;47.696;8.068;2023-05-02T08:27:40;3.50;;;3.03;;
1751;SDS011;873;47.696;8.068;2023-05-02T08:30:06;2.80;;;2.43;;
1751;SDS011;873;47.696;8.068;2023-05-02T08:32:32;3.27;;;2.67;;
1751;SDS011;873;47.696;8.068;2023-05-02T08:34:58;3.80;;;3.27;;
1751;SDS011;873;47.696;8.068;2023-05-02T08:37:23;2.57;;;2.37;;
1751;SDS011;873;47.696;8.068;2023-05-02T08:39:49;3.07;;;2.50;;
1751;SDS011;873;47.696;8.068;2023-05-02T08:42:14;2.70;;;2.30;;
1751;SDS011;873;47.696;8.068;2023-05-02T08:44:39;4.07;;;2.67;;
1751;SDS011;873;47.696;8.068;2023-05-02T08:47:05;2.80;;;2.60;;
1751;SDS011;873;47.696;8.068;2023-05-02T08:49:31;2.93;;;2.33;;
1751;SDS011;873;47.696;8.068;2023-05-02T08:51:59;3.30;;;2.40;;
1751;SDS011;873;47.696;8.068;2023-05-02T08:54:26;2.43;;;2.23;;
1751;SDS011;873;47.696;8.068;2023-05-02T08:56:53;2.23;;;2.03;;
1751;SDS011;873;47.696;8.068;2023-05-02T08:59:19;2.57;;;2.37;;
1751;SDS011;873;47.696;8.068;2023-05-02T09:01:44;2.73;;;2.50;;
1751;SDS011;873;47.696;8.068;2023-05-02T09:04:13;3.43;;;2.90;;
1751;SDS011;873;47.696;8.068;2023-05-02T09:06:39;3.17;;;2.87;;
1751;SDS011;873;47.696;8.068;2023-05-02T09:09:05;2.70;;;2.23;;
1751;SDS011;873;47.696;8.068;2023-05-02T09:11:31;2.70;;;2.30;;
1751;SDS011;873;47.696;8.068;2023-05-02T09:13:56;2.83;;;2.40;;
1751;SDS011;873;47.696;8.068;2023-05-02T09:16:28;3.17;;;2.50;;
1751;SDS011;873;47.696;8.068;2023-05-02T09:18:54;3.10;;;2.53;;
1751;SDS011;873;47.696;8.068;2023-05-02T09:21:21;2.87;;;2.60;;
1751;SDS011;873;47.696;8.068;2023-05-02T09:26:27;2.90;;;2.57;;
1751;SDS011;873;47.696;8.068;2023-05-02T09:28:58;2.60;;;2.10;;
1751;SDS011;873;47.696;8.068;2023-05-02T09:31:30;2.80;;;2.30;;
1751;SDS011;873;47.696;8.068;2023-05-02T09:34:10;2.67;;;2.37;;
1751;SDS011;873;47.696;8.068;2023-05-02T09:36:39;3.00;;;2.70;;
1751;SDS011;873;47.696;8.068;2023-05-02T09:39:07;3.03;;;2.70;;
1751;SDS011;873;47.696;8.068;2023-05-02T09:41:40;4.27;;;3.23;;
1751;SDS011;873;47.696;8.068;2023-05-02T09:44:18;3.27;;;2.93;;
1751;SDS011;873;47.696;8.068;2023-05-02T09:46:47;3.50;;;3.20;;
1751;SDS011;873;47.696;8.068;2023-05-02T09:49:41;3.30;;;2.90;;
1751;SDS011;873;47.696;8.068;2023-05-02T09:52:12;3.43;;;3.13;;
1751;SDS011;873;47.696;8.068;2023-05-02T09:54:39;3.37;;;2.93;;
1751;SDS011;873;47.696;8.068;2023-05-02T09:57:05;3.47;;;3.00;;
1751;SDS011;873;47.696;8.068;2023-05-02T09:59:31;4.03;;;3.27;;
1751;SDS011;873;47.696;8.068;2023-05-02T10:01:57;4.57;;;3.13;;
1751;SDS011;873;47.696;8.068;2023-05-02T10:04:24;3.43;;;2.90;;
1751;SDS011;873;47.696;8.068;2023-05-02T10:06:51;3.23;;;2.93;;
1751;SDS011;873;47.696;8.068;2023-05-02T10:09:18;3.50;;;2.90;;
1751;SDS011;873;47.696;8.068;2023-05-02T10:11:44;4.07;;;3.10;;
1751;SDS011;873;47.696;8.068;2023-05-02T10:14:10;3.13;;;2.83;;
1751;SDS011;873;47.696;8.068;2023-05-02T10:16:38;4.37;;;3.17;;
1751;SDS011;873;47.696;8.068;2023-05-02T10:19:12;4.60;;;2.83;;
1751;SDS011;873;47.696;8.068;2023-05-02T10:21:44;2.87;;;2.63;;
1751;SDS011;873;47.696;8.068;2023-05-02T10:24:10;2.37;;;2.17;;
1751;SDS011;873;47.696;8.068;2023-05-02T10:26:36;4.10;;;2.80;;
1751;SDS011;873;47.696;8.068;2023-05-02T10:29:03;3.83;;;2.87;;
1751;SDS011;873;47.696;8.068;2023-05-02T10:31:32;3.30;;;3.00;;
1751;SDS011;873;47.696;8.068;2023-05-02T10:33:59;3.20;;;2.70;;
1751;SDS011;873;47.696;8.068;2023-05-02T10:36:26;3.27;;;2.40;;
1751;SDS011;873;47.696;8.068;2023-05-02T10:38:53;3.07;;;2.40;;
1751;SDS011;873;47.696;8.068;2023-05-02T10:41:20;3.97;;;2.47;;
1751;SDS011;873;47.696;8.068;2023-05-02T10:43:48;3.10;;;2.27;;
1751;SDS011;873;47.696;8.068;2023-05-02T10:49:04;2.53;;;2.33;;
1751;SDS011;873;47.696;8.068;2023-05-02T10:51:42;5.23;;;3.10;;
1751;SDS011;873;47.696;8.068;2023-05-02T10:59:38;3.43;;;2.70;;
1751;SDS011;873;47.696;8.068;2023-05-02T11:02:05;3.40;;;3.00;;
1751;SDS011;873;47.696;8.068;2023-05-02T11:05:03;4.00;;;2.30;;
1751;SDS011;873;47.696;8.068;2023-05-02T11:07:30;3.03;;;2.73;;
1751;SDS011;873;47.696;8.068;2023-05-02T11:12:54;2.63;;;2.43;;
1751;SDS011;873;47.696;8.068;2023-05-02T11:20:36;2.60;;;2.23;;
1751;SDS011;873;47.696;8.068;2023-05-02T11:23:20;2.80;;;2.17;;
1751;SDS011;873;47.696;8.068;2023-05-02T11:25:51;2.80;;;2.20;;
1751;SDS011;873;47.696;8.068;2023-05-02T11:31:06;3.50;;;2.73;;
1751;SDS011;873;47.696;8.068;2023-05-02T11:33:32;3.40;;;2.43;;
1751;SDS011;873;47.696;8.068;2023-05-02T11:35:58;2.50;;;2.30;;
1751;SDS011;873;47.696;8.068;2023-05-02T11:38:24;2.53;;;2.30;;
1751;SDS011;873;47.696;8.068;2023-05-02T11:40:53;2.53;;;2.13;;
1751;SDS011;873;47.696;8.068;2023-05-02T11:43:20;2.00;;;1.80;;
1751;SDS011;873;47.696;8.068;2023-05-02T11:45:46;2.20;;;2.00;;
1751;SDS011;873;47.696;8.068;2023-05-02T11:48:12;2.27;;;1.80;;
1751;SDS011;873;47.696;8.068;2023-05-02T11:53:20;4.57;;;2.17;;
1751;SDS011;873;47.696;8.068;2023-05-02T11:55:49;2.13;;;1.57;;
1751;SDS011;873;47.696;8.068;2023-05-02T11:58:17;2.30;;;1.80;;
1751;SDS011;873;47.696;8.068;2023-05-02T12:00:44;1.60;;;1.50;;
1751;SDS011;873;47.696;8.068;2023-05-02T12:03:19;2.03;;;1.80;;
1751;SDS011;873;47.696;8.068;2023-05-02T12:05:46;1.37;;;1.27;;
1751;SDS011;873;47.696;8.068;2023-05-02T12:08:19;1.50;;;1.40;;
1751;SDS011;873;47.696;8.068;2023-05-02T12:11:02;1.50;;;1.40;;
1751;SDS011;873;47.696;8.068;2023-05-02T12:13:27;1.37;;;1.27;;
1751;SDS011;873;47.696;8.068;2023-05-02T12:15:53;1.67;;;1.53;;
1751;SDS011;873;47.696;8.068;2023-05-02T12:18:20;1.40;;;1.30;;
1751;SDS011;873;47.696;8.068;2023-05-02T12:20:48;1.53;;;1.40;;
1751;SDS011;873;47.696;8.068;2023-05-02T12:23:16;1.80;;;1.50;;
1751;SDS011;873;47.696;8.068;2023-05-02T12:25:42;1.50;;;1.40;;
1751;SDS011;873;47.696;8.068;2023-05-02T12:28:08;1.70;;;1.60;;
1751;SDS011;873;47.696;8.068;2023-05-02T12:30:36;2.37;;;1.40;;
1751;SDS011;873;47.696;8.068;2023-05-02T12:33:02;1.57;;;1.40;;
1751;SDS011;873;47.696;8.068;2023-05-02T12:35:29;1.10;;;1.10;;
1751;SDS011;873;47.696;8.068;2023-05-02T12:40:45;2.70;;;1.10;;
1751;SDS011;873;47.696;8.068;2023-05-02T12:43:13;1.07;;;1.03;;
1751;SDS011;873;47.696;8.068;2023-05-02T12:45:39;1.17;;;1.00;;
1751;SDS011;873;47.696;8.068;2023-05-02T12:50:51;1.40;;;1.30;;
1751;SDS011;873;47.696;8.068;2023-05-02T12:56:05;1.33;;;1.23;;
1751;SDS011;873;47.696;8.068;2023-05-02T12:58:38;1.57;;;1.10;;
1751;SDS011;873;47.696;8.068;2023-05-02T13:01:07;1.20;;;1.00;;
1751;SDS011;873;47.696;8.068;2023-05-02T13:03:33;1.20;;;1.10;;
1751;SDS011;873;47.696;8.068;2023-05-02T13:05:58;1.20;;;1.03;;
1751;SDS011;873;47.696;8.068;2023-05-02T13:08:24;0.90;;;0.90;;
1751;SDS011;873;47.696;8.068;2023-05-02T13:10:49;0.90;;;0.90;;
1751;SDS011;873;47.696;8.068;2023-05-02T13:13:15;1.00;;;0.90;;
1751;SDS011;873;47.696;8.068;2023-05-02T13:15:41;1.23;;;0.87;;
1751;SDS011;873;47.696;8.068;2023-05-02T13:18:06;1.50;;;1.10;;
1751;SDS011;873;47.696;8.068;2023-05-02T13:20:32;1.40;;;1.13;;
1751;SDS011;873;47.696;8.068;2023-05-02T13:22:58;1.30;;;1.20;;
1751;SDS011;873;47.696;8.068;2023-05-02T13:25:23;1.40;;;1.27;;
1751;SDS011;873;47.696;8.068;2023-05-02T13:27:49;3.40;;;1.30;;
1751;SDS011;873;47.696;8.068;2023-05-02T13:30:14;3.97;;;1.37;;
1751;SDS011;873;47.696;8.068;2023-05-02T13:32:40;1.87;;;1.30;;
1751;SDS011;873;47.696;8.068;2023-05-02T13:35:05;2.17;;;1.50;;
1751;SDS011;873;47.696;8.068;2023-05-02T13:37:31;2.57;;;1.33;;
1751;SDS011;873;47.696;8.068;2023-05-02T13:39:57;2.07;;;1.60;;
1751;SDS011;873;47.696;8.068;2023-05-02T13:42:22;1.60;;;1.50;;
1751;SDS011;873;47.696;8.068;2023-05-02T13:44:48;1.30;;;1.20;;
1751;SDS011;873;47.696;8.068;2023-05-02T13:47:14;2.00;;;1.50;;
1751;SDS011;873;47.696;8.068;2023-05-02T13:49:40;2.87;;;1.60;;
1751;SDS011;873;47.696;8.068;2023-05-02T13:52:05;1.67;;;1.50;;
1751;SDS011;873;47.696;8.068;2023-05-02T13:54:31;2.37;;;1.90;;
1751;SDS011;873;47.696;8.068;2023-05-02T13:56:56;2.87;;;1.87;;
1751;SDS011;873;47.696;8.068;2023-05-02T13:59:22;2.50;;;1.37;;
1751;SDS011;873;47.696;8.068;2023-05-02T14:01:48;2.20;;;1.67;;
1751;SDS011;873;47.696;8.068;2023-05-02T14:04:13;2.27;;;2.07;;
1751;SDS011;873;47.696;8.068;2023-05-02T14:06:39;2.83;;;1.40;;
1751;SDS011;873;47.696;8.068;2023-05-02T14:09:04;1.80;;;1.57;;
1751;SDS011;873;47.696;8.068;2023-05-02T14:11:31;1.67;;;1.57;;
1751;SDS011;873;47.696;8.068;2023-05-02T14:13:57;2.07;;;1.87;;
1751;SDS011;873;47.696;8.068;2023-05-02T14:16:23;1.83;;;1.63;;
1751;SDS011;873;47.696;8.068;2023-05-02T14:18:49;1.20;;;1.10;;
1751;SDS011;873;47.696;8.068;2023-05-02T14:21:15;1.60;;;1.43;;
1751;SDS011;873;47.696;8.068;2023-05-02T14:23:41;1.63;;;1.30;;
1751;SDS011;873;47.696;8.068;2023-05-02T14:26:06;1.83;;;1.50;;
1751;SDS011;873;47.696;8.068;2023-05-02T14:28:32;1.50;;;1.40;;
1751;SDS011;873;47.696;8.068;2023-05-02T14:30:57;2.70;;;1.70;;
1751;SDS011;873;47.696;8.068;2023-05-02T14:33:23;1.37;;;1.27;;
1751;SDS011;873;47.696;8.068;2023-05-02T14:35:48;1.43;;;1.20;;
1751;SDS011;873;47.696;8.068;2023-05-02T14:38:14;1.40;;;1.30;;
1751;SDS011;873;47.696;8.068;2023-05-02T14:40:40;1.20;;;1.10;;
1751;SDS011;873;47.696;8.068;2023-05-02T14:43:05;1.97;;;1.70;;
1751;SDS011;873;47.696;8.068;2023-05-02T14:45:31;1.70;;;1.60;;
1751;SDS011;873;47.696;8.068;2023-05-02T14:47:56;1.70;;;1.50;;
1751;SDS011;873;47.696;8.068;2023-05-02T14:50:22;1.57;;;1.47;;
1751;SDS011;873;47.696;8.068;2023-05-02T14:52:48;1.27;;;1.07;;
1751;SDS011;873;47.696;8.068;2023-05-02T14:55:14;1.53;;;1.27;;
1751;SDS011;873;47.696;8.068;2023-05-02T14:57:40;1.07;;;0.97;;
1751;SDS011;873;47.696;8.068;2023-05-02T15:00:06;0.90;;;0.90;;
1751;SDS011;873;47.696;8.068;2023-05-02T15:02:32;1.63;;;1.20;;
1751;SDS011;873;47.696;8.068;2023-05-02T15:04:58;1.30;;;1.20;;
1751;SDS011;873;47.696;8.068;2023-05-02T15:07:24;1.70;;;1.43;;
1751;SDS011;873;47.696;8.068;2023-05-02T15:09:50;1.40;;;1.30;;
1751;SDS011;873;47.696;8.068;2023-05-02T15:12:15;1.70;;;1.60;;
1751;SDS011;873;47.696;8.068;2023-05-02T15:14:40;1.80;;;1.40;;
1751;SDS011;873;47.696;8.068;2023-05-02T15:17:06;2.57;;;1.40;;
1751;SDS011;873;47.696;8.068;2023-05-02T15:19:31;1.60;;;1.50;;
1751;SDS011;873;47.696;8.068;2023-05-02T15:21:57;2.70;;;2.00;;
1751;SDS011;873;47.696;8.068;2023-05-02T15:24:23;1.93;;;1.83;;
1751;SDS011;873;47.696;8.068;2023-05-02T15:26:49;3.37;;;1.87;;
1751;SDS011;873;47.696;8.068;2023-05-02T15:29:15;2.93;;;2.17;;
1751;SDS011;873;47.696;8.068;2023-05-02T15:31:41;1.63;;;1.53;;
1751;SDS011;873;47.696;8.068;2023-05-02T15:34:07;2.00;;;1.90;;
1751;SDS011;873;47.696;8.068;2023-05-02T15:36:33;2.03;;;1.83;;
1751;SDS011;873;47.696;8.068;2023-05-02T15:39:02;2.40;;;2.10;;
1751;SDS011;873;47.696;8.068;2023-05-02T15:41:28;1.70;;;1.60;;
1751;SDS011;873;47.696;8.068;2023-05-02T15:43:54;1.73;;;1.63;;
1751;SDS011;873;47.696;8.068;2023-05-02T15:46:20;2.60;;;1.80;;
1751;SDS011;873;47.696;8.068;2023-05-02T15:48:45;2.50;;;1.90;;
1751;SDS011;873;47.696;8.068;2023-05-02T15:51:11;2.00;;;1.80;;
1751;SDS011;873;47.696;8.068;2023-05-02T15:53:37;2.20;;;1.93;;
1751;SDS011;873;47.696;8.068;2023-05-02T15:56:07;2.70;;;1.80;;
1751;SDS011;873;47.696;8.068;2023-05-02T15:58:34;2.07;;;1.77;;
1751;SDS011;873;47.696;8.068;2023-05-02T16:00:59;2.20;;;2.00;;
1751;SDS011;873;47.696;8.068;2023-05-02T16:03:25;2.03;;;1.83;;
1751;SDS011;873;47.696;8.068;2023-05-02T16:05:51;2.23;;;1.63;;
1751;SDS011;873;47.696;8.068;2023-05-02T16:08:16;1.60;;;1.50;;
1751;SDS011;873;47.696;8.068;2023-05-02T16:10:42;3.50;;;1.70;;
1751;SDS011;873;47.696;8.068;2023-05-02T16:13:08;1.60;;;1.40;;
1751;SDS011;873;47.696;8.068;2023-05-02T16:15:33;1.77;;;1.60;;
1751;SDS011;873;47.696;8.068;2023-05-02T16:17:59;1.27;;;1.17;;
1751;SDS011;873;47.696;8.068;2023-05-02T16:20:24;1.40;;;1.30;;
1751;SDS011;873;47.696;8.068;2023-05-02T16:22:51;1.60;;;1.30;;
1751;SDS011;873;47.696;8.068;2023-05-02T16:25:17;1.00;;;1.00;;
1751;SDS011;873;47.696;8.068;2023-05-02T16:27:42;0.90;;;0.80;;
1751;SDS011;873;47.696;8.068;2023-05-02T16:30:08;1.07;;;0.97;;
1751;SDS011;873;47.696;8.068;2023-05-02T16:32:34;1.20;;;1.10;;